sensor_id;sensor_type;location;lat;lon;timestamp;pressure;altitude;pressure_sealevel;temperature;humidity
62025;BME280;47978;49.118;12.146;2022-07-23T00:01:29;97444.25;;;19.32;72.79
62025;BME280;47978;49.118;12.146;2022-07-23T00:03:56;97446.38;;;19.19;73.63
62025;BME280;47978;49.118;12.146;2022-07-23T00:06:23;97437.94;;;19.19;73.70
62025;BME280;47978;49.118;12.146;2022-07-23T00:08:50;97440.69;;;19.16;73.76
62025;BME280;47978;49.118;12.146;2022-07-23T00:11:17;97445.38;;;19.12;74.45
62025;BME280;47978;49.118;12.146;2022-07-23T00:13:43;97444.56;;;19.11;73.81
62025;BME280;47978;49.118;12.146;2022-07-23T00:16:10;97446.28;;;19.16;73.46
62025;BME280;47978;49.118;12.146;2022-07-23T00:18:38;97450.34;;;19.18;73.42
62025;BME280;47978;49.118;12.146;2022-07-23T00:21:06;97438.41;;;19.21;73.76
62025;BME280;47978;49.118;12.146;2022-07-23T00:23:33;97439.50;;;19.17;73.44
62025;BME280;47978;49.118;12.146;2022-07-23T00:25:59;97437.34;;;19.10;73.72
62025;BME280;47978;49.118;12.146;2022-07-23T00:28:26;97417.41;;;19.15;73.72
62025;BME280;47978;49.118;12.146;2022-07-23T00:30:52;97413.00;;;19.14;73.32
62025;BME280;47978;49.118;12.146;2022-07-23T00:33:19;97403.91;;;19.01;75.17
62025;BME280;47978;49.118;12.146;2022-07-23T00:35:47;97399.31;;;18.93;75.03
62025;BME280;47978;49.118;12.146;2022-07-23T00:38:13;97397.03;;;18.99;74.46
62025;BME280;47978;49.118;12.146;2022-07-23T00:40:40;97391.78;;;18.97;73.82
62025;BME280;47978;49.118;12.146;2022-07-23T00:43:07;97370.81;;;18.91;74.89
62025;BME280;47978;49.118;12.146;2022-07-23T00:45:33;97389.63;;;18.91;75.86
62025;BME280;47978;49.118;12.146;2022-07-23T00:48:00;97376.06;;;18.93;75.82
62025;BME280;47978;49.118;12.146;2022-07-23T00:50:27;97364.22;;;18.99;75.16
62025;BME280;47978;49.118;12.146;2022-07-23T00:52:55;97361.88;;;19.01;74.73
62025;BME280;47978;49.118;12.146;2022-07-23T00:55:22;97366.28;;;19.02;74.88
62025;BME280;47978;49.118;12.146;2022-07-23T00:57:49;97359.94;;;19.05;74.29
62025;BME280;47978;49.118;12.146;2022-07-23T01:00:16;97360.75;;;19.06;74.53
62025;BME280;47978;49.118;12.146;2022-07-23T01:02:43;97357.66;;;19.11;74.07
62025;BME280;47978;49.118;12.146;2022-07-23T01:05:09;97353.25;;;19.10;74.00
62025;BME280;47978;49.118;12.146;2022-07-23T01:07:36;97348.72;;;19.05;75.00
62025;BME280;47978;49.118;12.146;2022-07-23T01:10:05;97345.13;;;19.05;74.55
62025;BME280;47978;49.118;12.146;2022-07-23T01:12:32;97358.59;;;18.99;74.42
62025;BME280;47978;49.118;12.146;2022-07-23T01:14:59;97400.38;;;18.88;75.35
62025;BME280;47978;49.118;12.146;2022-07-23T01:17:27;97421.88;;;19.00;75.49
62025;BME280;47978;49.118;12.146;2022-07-23T01:19:53;97423.41;;;19.14;75.20
62025;BME280;47978;49.118;12.146;2022-07-23T01:22:20;97419.59;;;19.22;75.21
62025;BME280;47978;49.118;12.146;2022-07-23T01:24:48;97408.53;;;19.29;74.75
62025;BME280;47978;49.118;12.146;2022-07-23T01:27:15;97411.59;;;19.40;74.39
62025;BME280;47978;49.118;12.146;2022-07-23T01:29:41;97418.38;;;19.39;74.66
62025;BME280;47978;49.118;12.146;2022-07-23T01:32:08;97431.28;;;19.43;73.69
62025;BME280;47978;49.118;12.146;2022-07-23T01:34:35;97425.84;;;19.50;73.31
62025;BME280;47978;49.118;12.146;2022-07-23T01:37:01;97423.03;;;19.50;74.16
62025;BME280;47978;49.118;12.146;2022-07-23T01:39:28;97422.38;;;19.57;73.54
62025;BME280;47978;49.118;12.146;2022-07-23T01:41:56;97408.34;;;19.57;73.94
62025;BME280;47978;49.118;12.146;2022-07-23T01:44:22;97413.16;;;19.57;74.46
62025;BME280;47978;49.118;12.146;2022-07-23T01:46:49;97412.34;;;19.56;74.01
62025;BME280;47978;49.118;12.146;2022-07-23T01:49:15;97412.81;;;19.58;74.06
62025;BME280;47978;49.118;12.146;2022-07-23T01:51:42;97411.63;;;19.59;74.42
62025;BME280;47978;49.118;12.146;2022-07-23T01:54:08;97414.88;;;19.61;74.18
62025;BME280;47978;49.118;12.146;2022-07-23T01:56:35;97408.88;;;19.63;74.01
62025;BME280;47978;49.118;12.146;2022-07-23T01:59:03;97411.16;;;19.57;74.73
62025;BME280;47978;49.118;12.146;2022-07-23T02:01:30;97411.97;;;19.58;74.47
62025;BME280;47978;49.118;12.146;2022-07-23T02:03:56;97409.16;;;19.58;74.56
62025;BME280;47978;49.118;12.146;2022-07-23T02:06:23;97417.22;;;19.59;74.09
62025;BME280;47978;49.118;12.146;2022-07-23T02:08:49;97411.53;;;19.55;74.70
62025;BME280;47978;49.118;12.146;2022-07-23T02:11:16;97422.75;;;19.55;74.61
62025;BME280;47978;49.118;12.146;2022-07-23T02:13:42;97445.22;;;19.55;74.58
62025;BME280;47978;49.118;12.146;2022-07-23T02:16:10;97451.16;;;19.54;74.91
62025;BME280;47978;49.118;12.146;2022-07-23T02:18:37;97460.13;;;19.60;75.18
62025;BME280;47978;49.118;12.146;2022-07-23T02:21:04;97472.34;;;19.67;74.17
62025;BME280;47978;49.118;12.146;2022-07-23T02:23:33;97463.13;;;19.67;74.13
62025;BME280;47978;49.118;12.146;2022-07-23T02:26:00;97495.38;;;19.61;75.03
62025;BME280;47978;49.118;12.146;2022-07-23T02:28:26;97517.41;;;19.59;74.91
62025;BME280;47978;49.118;12.146;2022-07-23T02:30:53;97497.94;;;19.66;74.45
62025;BME280;47978;49.118;12.146;2022-07-23T02:33:21;97500.41;;;19.67;73.46
62025;BME280;47978;49.118;12.146;2022-07-23T02:35:47;97514.84;;;19.69;72.94
62025;BME280;47978;49.118;12.146;2022-07-23T02:38:14;97527.53;;;19.79;71.78
62025;BME280;47978;49.118;12.146;2022-07-23T02:40:41;97504.94;;;19.91;70.49
62025;BME280;47978;49.118;12.146;2022-07-23T02:43:07;97505.91;;;19.99;71.38
62025;BME280;47978;49.118;12.146;2022-07-23T02:45:34;97502.59;;;20.13;70.85
62025;BME280;47978;49.118;12.146;2022-07-23T02:48:00;97533.13;;;20.34;70.38
62025;BME280;47978;49.118;12.146;2022-07-23T02:50:28;97553.00;;;20.44;70.36
62025;BME280;47978;49.118;12.146;2022-07-23T02:52:55;97557.53;;;20.49;70.58
62025;BME280;47978;49.118;12.146;2022-07-23T02:55:22;97532.75;;;20.55;69.56
62025;BME280;47978;49.118;12.146;2022-07-23T02:57:48;97533.94;;;20.54;70.42
62025;BME280;47978;49.118;12.146;2022-07-23T03:00:15;97540.81;;;20.56;70.07
62025;BME280;47978;49.118;12.146;2022-07-23T03:02:42;97536.75;;;20.54;70.63
62025;BME280;47978;49.118;12.146;2022-07-23T03:05:10;97537.56;;;20.54;70.65
62025;BME280;47978;49.118;12.146;2022-07-23T03:07:37;97542.38;;;20.54;71.06
62025;BME280;47978;49.118;12.146;2022-07-23T03:10:04;97563.25;;;20.37;72.62
62025;BME280;47978;49.118;12.146;2022-07-23T03:12:31;97569.69;;;20.37;72.04
62025;BME280;47978;49.118;12.146;2022-07-23T03:14:58;97550.47;;;20.39;72.60
62025;BME280;47978;49.118;12.146;2022-07-23T03:17:24;97538.78;;;20.37;75.74
62025;BME280;47978;49.118;12.146;2022-07-23T03:19:51;97536.59;;;20.27;77.71
62025;BME280;47978;49.118;12.146;2022-07-23T03:22:17;97534.53;;;20.24;78.09
62025;BME280;47978;49.118;12.146;2022-07-23T03:24:45;97518.72;;;20.16;79.47
62025;BME280;47978;49.118;12.146;2022-07-23T03:27:12;97531.69;;;20.05;79.72
62025;BME280;47978;49.118;12.146;2022-07-23T03:29:38;97550.34;;;19.62;83.24
62025;BME280;47978;49.118;12.146;2022-07-23T03:32:05;97552.25;;;19.73;81.88
62025;BME280;47978;49.118;12.146;2022-07-23T03:34:32;97560.75;;;19.77;82.49
62025;BME280;47978;49.118;12.146;2022-07-23T03:36:58;97553.78;;;19.71;83.35
62025;BME280;47978;49.118;12.146;2022-07-23T03:39:28;97549.78;;;19.72;82.70
62025;BME280;47978;49.118;12.146;2022-07-23T03:41:56;97520.94;;;19.55;84.05
62025;BME280;47978;49.118;12.146;2022-07-23T03:44:22;97513.25;;;19.52;82.80
62025;BME280;47978;49.118;12.146;2022-07-23T03:46:49;97500.13;;;19.41;82.08
62025;BME280;47978;49.118;12.146;2022-07-23T03:49:16;97491.19;;;19.35;82.33
62025;BME280;47978;49.118;12.146;2022-07-23T03:51:43;97487.50;;;19.31;82.84
62025;BME280;47978;49.118;12.146;2022-07-23T03:54:10;97479.75;;;19.24;83.07
62025;BME280;47978;49.118;12.146;2022-07-23T03:56:36;97476.81;;;19.21;83.44
62025;BME280;47978;49.118;12.146;2022-07-23T03:59:04;97467.19;;;19.18;83.72
62025;BME280;47978;49.118;12.146;2022-07-23T04:01:31;97465.81;;;19.12;84.36
62025;BME280;47978;49.118;12.146;2022-07-23T04:03:59;97456.50;;;19.08;84.81
62025;BME280;47978;49.118;12.146;2022-07-23T04:06:26;97457.22;;;19.05;83.87
62025;BME280;47978;49.118;12.146;2022-07-23T04:08:52;97442.41;;;19.04;84.18
62025;BME280;47978;49.118;12.146;2022-07-23T04:11:19;97449.63;;;19.05;84.51
62025;BME280;47978;49.118;12.146;2022-07-23T04:13:45;97439.34;;;18.94;85.60
62025;BME280;47978;49.118;12.146;2022-07-23T04:16:13;97439.50;;;19.01;85.34
62025;BME280;47978;49.118;12.146;2022-07-23T04:18:40;97426.06;;;18.91;84.65
62025;BME280;47978;49.118;12.146;2022-07-23T04:21:07;97413.94;;;18.86;85.18
62025;BME280;47978;49.118;12.146;2022-07-23T04:23:33;97417.09;;;18.85;85.28
62025;BME280;47978;49.118;12.146;2022-07-23T04:26:00;97415.31;;;18.93;84.71
62025;BME280;47978;49.118;12.146;2022-07-23T04:28:27;97413.94;;;19.02;84.93
62025;BME280;47978;49.118;12.146;2022-07-23T04:30:55;97434.00;;;19.04;85.46
62025;BME280;47978;49.118;12.146;2022-07-23T04:33:23;97445.75;;;19.10;85.62
62025;BME280;47978;49.118;12.146;2022-07-23T04:35:50;97443.84;;;19.14;85.14
62025;BME280;47978;49.118;12.146;2022-07-23T04:38:17;97442.38;;;19.20;85.00
62025;BME280;47978;49.118;12.146;2022-07-23T04:40:43;97444.63;;;19.15;85.44
62025;BME280;47978;49.118;12.146;2022-07-23T04:43:10;97438.75;;;19.20;84.79
62025;BME280;47978;49.118;12.146;2022-07-23T04:45:36;97428.63;;;19.15;84.89
62025;BME280;47978;49.118;12.146;2022-07-23T04:48:03;97426.13;;;19.10;85.41
62025;BME280;47978;49.118;12.146;2022-07-23T04:50:31;97424.41;;;19.05;85.55
62025;BME280;47978;49.118;12.146;2022-07-23T04:52:58;97442.09;;;19.09;85.86
62025;BME280;47978;49.118;12.146;2022-07-23T04:55:25;97451.91;;;19.16;85.59
62025;BME280;47978;49.118;12.146;2022-07-23T04:57:51;97437.75;;;19.28;85.59
62025;BME280;47978;49.118;12.146;2022-07-23T05:00:18;97419.94;;;19.36;85.01
62025;BME280;47978;49.118;12.146;2022-07-23T05:02:44;97446.25;;;19.31;85.66
62025;BME280;47978;49.118;12.146;2022-07-23T05:05:11;97446.13;;;19.44;84.96
62025;BME280;47978;49.118;12.146;2022-07-23T05:07:39;97433.25;;;19.59;84.08
62025;BME280;47978;49.118;12.146;2022-07-23T05:10:06;97438.84;;;19.59;84.09
62025;BME280;47978;49.118;12.146;2022-07-23T05:12:32;97447.34;;;19.62;83.94
62025;BME280;47978;49.118;12.146;2022-07-23T05:14:59;97448.72;;;19.68;84.00
62025;BME280;47978;49.118;12.146;2022-07-23T05:17:25;97453.38;;;19.80;83.84
62025;BME280;47978;49.118;12.146;2022-07-23T05:19:52;97448.66;;;19.84;83.77
62025;BME280;47978;49.118;12.146;2022-07-23T05:22:25;97450.56;;;19.99;82.79
62025;BME280;47978;49.118;12.146;2022-07-23T05:24:53;97453.53;;;20.07;82.09
62025;BME280;47978;49.118;12.146;2022-07-23T05:27:20;97467.66;;;20.10;82.27
62025;BME280;47978;49.118;12.146;2022-07-23T05:29:47;97462.38;;;20.09;82.80
62025;BME280;47978;49.118;12.146;2022-07-23T05:32:13;97461.50;;;20.24;82.70
62025;BME280;47978;49.118;12.146;2022-07-23T05:34:40;97465.47;;;20.23;82.58
62025;BME280;47978;49.118;12.146;2022-07-23T05:37:07;97465.66;;;20.30;82.27
62025;BME280;47978;49.118;12.146;2022-07-23T05:39:33;97464.03;;;20.29;81.64
62025;BME280;47978;49.118;12.146;2022-07-23T05:42:01;97464.97;;;20.37;81.93
62025;BME280;47978;49.118;12.146;2022-07-23T05:44:28;97467.13;;;20.43;81.73
62025;BME280;47978;49.118;12.146;2022-07-23T05:47:00;97461.34;;;20.56;81.85
62025;BME280;47978;49.118;12.146;2022-07-23T05:49:27;97456.34;;;20.69;81.44
62025;BME280;47978;49.118;12.146;2022-07-23T05:51:53;97468.19;;;20.78;80.97
62025;BME280;47978;49.118;12.146;2022-07-23T05:54:20;97461.56;;;20.89;80.74
62025;BME280;47978;49.118;12.146;2022-07-23T05:56:46;97458.00;;;20.93;80.17
62025;BME280;47978;49.118;12.146;2022-07-23T05:59:14;97460.41;;;20.94;79.55
62025;BME280;47978;49.118;12.146;2022-07-23T06:01:41;97459.53;;;21.13;79.56
62025;BME280;47978;49.118;12.146;2022-07-23T06:04:08;97465.34;;;21.24;80.14
62025;BME280;47978;49.118;12.146;2022-07-23T06:06:35;97472.72;;;21.32;81.34
62025;BME280;47978;49.118;12.146;2022-07-23T06:09:02;97484.03;;;21.62;78.75
62025;BME280;47978;49.118;12.146;2022-07-23T06:11:29;97482.09;;;21.66;78.66
62025;BME280;47978;49.118;12.146;2022-07-23T06:13:55;97479.13;;;21.86;77.27
62025;BME280;47978;49.118;12.146;2022-07-23T06:16:23;97487.72;;;21.96;78.27
62025;BME280;47978;49.118;12.146;2022-07-23T06:18:50;97485.84;;;22.04;74.71
62025;BME280;47978;49.118;12.146;2022-07-23T06:21:17;97493.50;;;22.07;73.67
62025;BME280;47978;49.118;12.146;2022-07-23T06:24:04;97495.47;;;22.03;68.41
62025;BME280;47978;49.118;12.146;2022-07-23T06:26:30;97501.88;;;22.30;68.87
62025;BME280;47978;49.118;12.146;2022-07-23T06:28:57;97492.50;;;22.53;69.21
62025;BME280;47978;49.118;12.146;2022-07-23T06:31:25;97498.63;;;22.28;71.57
62025;BME280;47978;49.118;12.146;2022-07-23T06:33:52;97507.50;;;22.60;70.75
62025;BME280;47978;49.118;12.146;2022-07-23T06:36:18;97519.44;;;22.50;71.23
62025;BME280;47978;49.118;12.146;2022-07-23T06:38:46;97522.50;;;22.72;69.79
62025;BME280;47978;49.118;12.146;2022-07-23T06:41:14;97521.94;;;22.59;68.03
62025;BME280;47978;49.118;12.146;2022-07-23T06:43:40;97518.94;;;22.41;67.93
62025;BME280;47978;49.118;12.146;2022-07-23T06:46:07;97533.09;;;22.82;67.32
62025;BME280;47978;49.118;12.146;2022-07-23T06:48:35;97532.84;;;22.60;68.15
62025;BME280;47978;49.118;12.146;2022-07-23T06:51:02;97537.72;;;22.63;68.35
62025;BME280;47978;49.118;12.146;2022-07-23T06:53:28;97538.59;;;22.71;67.62
62025;BME280;47978;49.118;12.146;2022-07-23T06:55:55;97541.34;;;22.98;67.74
62025;BME280;47978;49.118;12.146;2022-07-23T06:58:21;97537.38;;;23.50;65.55
62025;BME280;47978;49.118;12.146;2022-07-23T07:00:48;97536.19;;;23.51;65.70
62025;BME280;47978;49.118;12.146;2022-07-23T07:03:16;97536.31;;;23.69;64.71
62025;BME280;47978;49.118;12.146;2022-07-23T07:05:44;97536.91;;;23.41;64.83
62025;BME280;47978;49.118;12.146;2022-07-23T07:08:11;97540.03;;;23.29;65.82
62025;BME280;47978;49.118;12.146;2022-07-23T07:10:37;97542.84;;;23.29;66.16
62025;BME280;47978;49.118;12.146;2022-07-23T07:13:04;97544.69;;;23.55;65.21
62025;BME280;47978;49.118;12.146;2022-07-23T07:15:30;97558.34;;;23.46;65.75
62025;BME280;47978;49.118;12.146;2022-07-23T07:17:57;97549.88;;;23.46;65.96
62025;BME280;47978;49.118;12.146;2022-07-23T07:20:24;97560.84;;;23.58;65.69
62025;BME280;47978;49.118;12.146;2022-07-23T07:22:51;97560.66;;;23.81;65.12
62025;BME280;47978;49.118;12.146;2022-07-23T07:25:18;97562.50;;;23.63;65.18
62025;BME280;47978;49.118;12.146;2022-07-23T07:27:44;97563.16;;;23.93;64.40
62025;BME280;47978;49.118;12.146;2022-07-23T07:30:12;97555.97;;;24.03;62.92
62025;BME280;47978;49.118;12.146;2022-07-23T07:32:39;97558.91;;;23.69;63.04
62025;BME280;47978;49.118;12.146;2022-07-23T07:35:22;97558.91;;;23.69;63.89
62025;BME280;47978;49.118;12.146;2022-07-23T07:37:49;97553.16;;;23.55;63.61
62025;BME280;47978;49.118;12.146;2022-07-23T07:40:17;97556.31;;;23.46;64.26
62025;BME280;47978;49.118;12.146;2022-07-23T07:42:45;97555.75;;;23.71;63.03
62025;BME280;47978;49.118;12.146;2022-07-23T07:45:12;97559.97;;;23.98;61.29
62025;BME280;47978;49.118;12.146;2022-07-23T07:47:38;97557.94;;;23.99;60.62
62025;BME280;47978;49.118;12.146;2022-07-23T07:50:05;97567.72;;;24.16;61.32
62025;BME280;47978;49.118;12.146;2022-07-23T07:52:32;97574.69;;;24.33;60.50
62025;BME280;47978;49.118;12.146;2022-07-23T07:54:59;97565.94;;;24.49;59.27
62025;BME280;47978;49.118;12.146;2022-07-23T07:57:26;97575.91;;;24.32;60.80
62025;BME280;47978;49.118;12.146;2022-07-23T07:59:57;97567.41;;;24.28;60.51
62025;BME280;47978;49.118;12.146;2022-07-23T08:02:39;97566.28;;;24.40;59.20
62025;BME280;47978;49.118;12.146;2022-07-23T08:05:07;97570.31;;;24.42;58.48
62025;BME280;47978;49.118;12.146;2022-07-23T08:07:34;97577.56;;;24.40;59.85
62025;BME280;47978;49.118;12.146;2022-07-23T08:10:00;97581.19;;;24.37;59.56
62025;BME280;47978;49.118;12.146;2022-07-23T08:12:37;97564.25;;;24.37;58.84
62025;BME280;47978;49.118;12.146;2022-07-23T08:15:05;97577.16;;;24.38;58.54
62025;BME280;47978;49.118;12.146;2022-07-23T08:17:39;97578.84;;;24.46;57.99
62025;BME280;47978;49.118;12.146;2022-07-23T08:20:07;97577.72;;;24.65;58.48
62025;BME280;47978;49.118;12.146;2022-07-23T08:22:48;97586.72;;;24.96;57.43
62025;BME280;47978;49.118;12.146;2022-07-23T08:25:16;97579.44;;;24.98;57.35
62025;BME280;47978;49.118;12.146;2022-07-23T08:27:44;97586.41;;;25.22;56.37
62025;BME280;47978;49.118;12.146;2022-07-23T08:30:11;97581.94;;;25.21;56.64
62025;BME280;47978;49.118;12.146;2022-07-23T08:32:51;97581.63;;;25.62;53.69
62025;BME280;47978;49.118;12.146;2022-07-23T08:35:20;97582.44;;;25.73;54.55
62025;BME280;47978;49.118;12.146;2022-07-23T08:37:47;97582.44;;;25.95;53.77
62025;BME280;47978;49.118;12.146;2022-07-23T08:40:14;97583.56;;;26.37;52.67
62025;BME280;47978;49.118;12.146;2022-07-23T08:42:40;97580.72;;;26.44;49.78
62025;BME280;47978;49.118;12.146;2022-07-23T08:45:09;97572.16;;;26.65;49.97
62025;BME280;47978;49.118;12.146;2022-07-23T08:47:37;97583.75;;;27.03;48.72
62025;BME280;47978;49.118;12.146;2022-07-23T08:50:05;97579.63;;;27.15;47.89
62025;BME280;47978;49.118;12.146;2022-07-23T08:52:33;97573.56;;;27.17;47.81
62025;BME280;47978;49.118;12.146;2022-07-23T08:55:01;97571.41;;;27.39;47.29
62025;BME280;47978;49.118;12.146;2022-07-23T08:57:27;97578.28;;;27.41;47.40
62025;BME280;47978;49.118;12.146;2022-07-23T08:59:54;97579.03;;;27.52;45.62
62025;BME280;47978;49.118;12.146;2022-07-23T09:02:22;97576.28;;;27.34;46.32
62025;BME280;47978;49.118;12.146;2022-07-23T09:04:49;97559.44;;;26.99;45.87
62025;BME280;47978;49.118;12.146;2022-07-23T09:07:15;97569.19;;;27.01;46.63
62025;BME280;47978;49.118;12.146;2022-07-23T09:09:42;97574.88;;;26.94;46.89
62025;BME280;47978;49.118;12.146;2022-07-23T09:12:10;97570.41;;;26.97;46.72
62025;BME280;47978;49.118;12.146;2022-07-23T09:14:38;97569.19;;;27.01;45.40
62025;BME280;47978;49.118;12.146;2022-07-23T09:17:09;97566.94;;;27.38;45.56
62025;BME280;47978;49.118;12.146;2022-07-23T09:19:37;97559.13;;;27.49;44.55
62025;BME280;47978;49.118;12.146;2022-07-23T09:22:20;97570.13;;;27.47;44.70
62025;BME280;47978;49.118;12.146;2022-07-23T09:25:04;97555.41;;;27.59;44.22
62025;BME280;47978;49.118;12.146;2022-07-23T09:27:50;97561.47;;;27.65;42.84
62025;BME280;47978;49.118;12.146;2022-07-23T09:30:21;97560.63;;;27.68;43.67
62025;BME280;47978;49.118;12.146;2022-07-23T09:33:08;97551.91;;;27.93;41.84
62025;BME280;47978;49.118;12.146;2022-07-23T09:35:51;97558.50;;;28.24;41.55
62025;BME280;47978;49.118;12.146;2022-07-23T09:38:19;97551.88;;;28.34;41.62
62025;BME280;47978;49.118;12.146;2022-07-23T09:40:47;97547.34;;;28.40;41.55
62025;BME280;47978;49.118;12.146;2022-07-23T09:43:30;97550.53;;;28.50;41.93
62025;BME280;47978;49.118;12.146;2022-07-23T09:46:19;97548.44;;;28.54;40.75
62025;BME280;47978;49.118;12.146;2022-07-23T09:48:46;97547.06;;;28.65;40.51
62025;BME280;47978;49.118;12.146;2022-07-23T09:51:14;97544.19;;;29.00;39.68
62025;BME280;47978;49.118;12.146;2022-07-23T09:53:41;97539.47;;;29.20;41.07
62025;BME280;47978;49.118;12.146;2022-07-23T09:56:08;97548.22;;;29.02;39.36
62025;BME280;47978;49.118;12.146;2022-07-23T09:58:39;97548.00;;;29.20;39.78
62025;BME280;47978;49.118;12.146;2022-07-23T10:01:06;97551.47;;;29.04;39.00
62025;BME280;47978;49.118;12.146;2022-07-23T10:03:33;97543.19;;;28.52;39.17
62025;BME280;47978;49.118;12.146;2022-07-23T10:05:59;97551.91;;;28.31;41.38
62025;BME280;47978;49.118;12.146;2022-07-23T10:08:28;97555.31;;;28.18;40.75
62025;BME280;47978;49.118;12.146;2022-07-23T10:10:56;97552.13;;;28.13;41.69
62025;BME280;47978;49.118;12.146;2022-07-23T10:13:24;97545.28;;;28.03;41.71
62025;BME280;47978;49.118;12.146;2022-07-23T10:15:51;97545.72;;;28.01;41.79
62025;BME280;47978;49.118;12.146;2022-07-23T10:18:18;97543.91;;;28.22;40.90
62025;BME280;47978;49.118;12.146;2022-07-23T10:20:47;97547.38;;;28.37;41.33
62025;BME280;47978;49.118;12.146;2022-07-23T10:23:19;97552.06;;;28.58;39.52
62025;BME280;47978;49.118;12.146;2022-07-23T10:25:57;97547.31;;;28.78;39.31
62025;BME280;47978;49.118;12.146;2022-07-23T10:28:46;97544.00;;;28.83;39.39
62025;BME280;47978;49.118;12.146;2022-07-23T10:31:28;97533.28;;;28.95;38.96
62025;BME280;47978;49.118;12.146;2022-07-23T10:34:21;97522.59;;;29.02;38.56
62025;BME280;47978;49.118;12.146;2022-07-23T10:36:51;97512.66;;;29.18;39.23
62025;BME280;47978;49.118;12.146;2022-07-23T10:39:22;97518.31;;;29.45;38.30
62025;BME280;47978;49.118;12.146;2022-07-23T10:41:50;97517.00;;;29.76;37.50
62025;BME280;47978;49.118;12.146;2022-07-23T10:44:18;97526.59;;;29.63;37.19
62025;BME280;47978;49.118;12.146;2022-07-23T10:46:59;97525.50;;;29.26;37.33
62025;BME280;47978;49.118;12.146;2022-07-23T10:49:30;97521.88;;;29.25;37.80
62025;BME280;47978;49.118;12.146;2022-07-23T10:52:20;97516.16;;;29.52;37.64
62025;BME280;47978;49.118;12.146;2022-07-23T10:54:48;97521.91;;;29.49;37.85
62025;BME280;47978;49.118;12.146;2022-07-23T10:57:18;97524.91;;;29.65;37.68
62025;BME280;47978;49.118;12.146;2022-07-23T11:00:16;97516.25;;;29.72;38.10
62025;BME280;47978;49.118;12.146;2022-07-23T11:02:44;97517.69;;;29.57;38.17
62025;BME280;47978;49.118;12.146;2022-07-23T11:05:13;97520.22;;;29.51;38.94
62025;BME280;47978;49.118;12.146;2022-07-23T11:08:14;97516.22;;;28.91;39.08
62025;BME280;47978;49.118;12.146;2022-07-23T11:10:43;97519.13;;;28.57;38.96
62025;BME280;47978;49.118;12.146;2022-07-23T11:13:30;97520.13;;;28.39;41.75
62025;BME280;47978;49.118;12.146;2022-07-23T11:16:15;97525.91;;;28.32;43.76
62025;BME280;47978;49.118;12.146;2022-07-23T11:19:03;97527.75;;;28.12;41.96
62025;BME280;47978;49.118;12.146;2022-07-23T11:21:50;97537.41;;;28.21;41.85
62025;BME280;47978;49.118;12.146;2022-07-23T11:24:19;97531.38;;;28.16;42.56
62025;BME280;47978;49.118;12.146;2022-07-23T11:26:57;97530.78;;;28.32;41.69
62025;BME280;47978;49.118;12.146;2022-07-23T11:29:45;97532.22;;;28.13;42.54
62025;BME280;47978;49.118;12.146;2022-07-23T11:32:39;97546.56;;;27.98;41.09
62025;BME280;47978;49.118;12.146;2022-07-23T11:35:24;97541.38;;;27.90;41.31
62025;BME280;47978;49.118;12.146;2022-07-23T11:37:51;97548.94;;;27.58;40.93
62025;BME280;47978;49.118;12.146;2022-07-23T11:40:18;97551.38;;;27.56;40.79
62025;BME280;47978;49.118;12.146;2022-07-23T11:42:53;97553.56;;;27.34;41.10
62025;BME280;47978;49.118;12.146;2022-07-23T11:45:22;97545.06;;;27.31;42.16
62025;BME280;47978;49.118;12.146;2022-07-23T11:47:48;97554.03;;;27.26;41.45
62025;BME280;47978;49.118;12.146;2022-07-23T11:50:15;97549.97;;;27.27;41.40
62025;BME280;47978;49.118;12.146;2022-07-23T11:52:41;97555.28;;;27.21;41.24
62025;BME280;47978;49.118;12.146;2022-07-23T11:55:09;97563.31;;;27.33;40.48
62025;BME280;47978;49.118;12.146;2022-07-23T11:57:38;97550.94;;;27.62;40.78
62025;BME280;47978;49.118;12.146;2022-07-23T12:00:08;97553.56;;;27.90;39.04
62025;BME280;47978;49.118;12.146;2022-07-23T12:02:37;97552.34;;;27.88;39.82
62025;BME280;47978;49.118;12.146;2022-07-23T12:05:05;97546.19;;;27.96;38.75
62025;BME280;47978;49.118;12.146;2022-07-23T12:07:34;97546.72;;;28.22;39.24
62025;BME280;47978;49.118;12.146;2022-07-23T12:10:04;97544.78;;;28.53;38.76
62025;BME280;47978;49.118;12.146;2022-07-23T12:12:35;97543.88;;;28.63;37.57
62025;BME280;47978;49.118;12.146;2022-07-23T12:15:03;97545.03;;;28.97;37.35
62025;BME280;47978;49.118;12.146;2022-07-23T12:17:34;97541.38;;;28.96;37.51
62025;BME280;47978;49.118;12.146;2022-07-23T12:20:03;97551.69;;;29.17;36.24
62025;BME280;47978;49.118;12.146;2022-07-23T12:22:35;97541.28;;;29.07;36.62
62025;BME280;47978;49.118;12.146;2022-07-23T12:25:05;97534.88;;;29.26;37.33
62025;BME280;47978;49.118;12.146;2022-07-23T12:27:32;97531.84;;;29.37;36.89
62025;BME280;47978;49.118;12.146;2022-07-23T12:29:58;97531.22;;;29.53;36.00
62025;BME280;47978;49.118;12.146;2022-07-23T12:32:27;97535.44;;;29.68;35.96
62025;BME280;47978;49.118;12.146;2022-07-23T12:35:04;97531.91;;;29.33;35.86
62025;BME280;47978;49.118;12.146;2022-07-23T12:37:33;97531.09;;;28.75;36.45
62025;BME280;47978;49.118;12.146;2022-07-23T12:40:27;97521.84;;;28.98;36.94
62025;BME280;47978;49.118;12.146;2022-07-23T12:42:55;97527.69;;;28.87;36.60
62025;BME280;47978;49.118;12.146;2022-07-23T12:45:22;97516.34;;;28.84;38.16
62025;BME280;47978;49.118;12.146;2022-07-23T12:48:02;97516.53;;;28.69;38.22
62025;BME280;47978;49.118;12.146;2022-07-23T12:50:33;97510.41;;;28.71;38.01
62025;BME280;47978;49.118;12.146;2022-07-23T12:53:08;97516.34;;;28.84;37.86
62025;BME280;47978;49.118;12.146;2022-07-23T12:55:46;97516.28;;;28.87;37.22
62025;BME280;47978;49.118;12.146;2022-07-23T12:58:41;97510.34;;;29.09;36.79
62025;BME280;47978;49.118;12.146;2022-07-23T13:01:09;97516.94;;;28.99;37.85